Time;durP1;ratioP1;P1;durP2;ratioP2;P2;SDS_P1;SDS_P2;PMS_P1;PMS_P2;Temp;Humidity;BMP_temperature;BMP_pressure;BME280_temperature;BME280_humidity;BME280_pressure;Samples;Min_cycle;Max_cycle;Signal;HPM_P1;HPM_P2
2022/10/15 00:02:08;;;;;;;;;;;;;;;;;;5057124;28;19912;-89
2022/10/15 00:04:34;;;;;;;;;;;;;;;;;;5074070;28;19939;-89
2022/10/15 00:06:59;;;;;;;;;;;;;;;;;;5089979;28;20426;-89
2022/10/15 00:09:25;;;;;;;;;;;;;;;;;;5073589;28;19967;-89
2022/10/15 00:11:50;;;;;;;;;;;;;;;;;;5073205;28;19913;-90
2022/10/15 00:14:15;;;;;;;;;;;;;;;;;;5090123;28;19982;-90
2022/10/15 00:16:41;;;;;;;;;;;;;;;;;;5073068;28;19913;-89
2022/10/15 00:19:06;;;;;;;;;;;;;;;;;;5068507;28;19913;-89
2022/10/15 00:21:31;;;;;;;;;;;;;;;;;;5072771;28;19912;-88
2022/10/15 00:23:57;;;;;;;;;;;;;;;;;;5074027;28;19916;-88
2022/10/15 00:26:22;;;;;;;;;;;;;;;;;;5074035;28;20287;-89
2022/10/15 00:28:48;;;;;;;;;;;;;;;;;;5074216;28;19966;-88
2022/10/15 00:31:14;;;;;;;;;;;;;;;;;;5074492;28;19971;-89
2022/10/15 00:33:39;;;;;;;;;;;;;;;;;;5074009;28;20375;-88
2022/10/15 00:36:04;;;;;;;;;;;;;;;;;;5070485;28;19909;-89
2022/10/15 00:38:30;;;;;;;;;;;;;;;;;;5096974;28;20019;-82
2022/10/15 00:40:56;;;;;;;;;;;;;;;;;;5078232;28;19927;-88
2022/10/15 00:43:21;;;;;;;;;;;;;;;;;;5078084;28;19959;-89
2022/10/15 00:45:47;;;;;;;;;;;;;;;;;;5074698;28;19923;-89
2022/10/15 00:48:13;;;;;;;;;;;;;;;;;;5074762;28;19913;-89
2022/10/15 00:50:38;;;;;;;;;;;;;;;;;;5058835;28;19916;-89
2022/10/15 00:53:03;;;;;;;;;;;;;;;;;;5059627;28;19920;-90
2022/10/15 00:55:30;;;;;;;;;;;;;;;;;;5073508;28;19913;-89
2022/10/15 00:57:55;;;;;;;;;;;;;;;;;;5073258;28;19908;-86
2022/10/15 01:00:21;;;;;;;;;;;;;;;;;;5061838;28;19955;-84
2022/10/15 01:02:47;;;;;;;;;;;;;;;;;;5108669;28;19912;-86
2022/10/15 01:05:12;;;;;;;;;;;;;;;;;;5102500;28;19916;-86
2022/10/15 01:07:38;;;;;;;;;;;;;;;;;;5098728;28;20486;-84
2022/10/15 01:10:05;;;;;;;;;;;;;;;;;;5089569;28;19943;-85
2022/10/15 01:12:30;;;;;;;;;;;;;;;;;;5070525;28;19912;-86
2022/10/15 01:14:56;;;;;;;;;;;;;;;;;;5079384;28;19912;-87
2022/10/15 01:17:22;;;;;;;;;;;;;;;;;;5073439;28;19934;-87
2022/10/15 01:19:47;;;;;;;;;;;;;;;;;;5072528;28;20372;-90
2022/10/15 01:22:13;;;;;;;;;;;;;;;;;;5074353;28;19913;-88
2022/10/15 01:24:38;;;;;;;;;;;;;;;;;;5071907;28;19966;-88
2022/10/15 01:27:06;;;;;;;;;;;;;;;;;;5072207;28;19912;-88
2022/10/15 01:29:33;;;;;;;;;;;;;;;;;;5066931;28;20387;-89
2022/10/15 01:31:58;;;;;;;;;;;;;;;;;;5071767;28;19912;-88
2022/10/15 01:34:24;;;;;;;;;;;;;;;;;;5055438;28;19969;-90
2022/10/15 01:36:50;;;;;;;;;;;;;;;;;;5073881;28;19913;-88
2022/10/15 01:39:15;;;;;;;;;;;;;;;;;;5073613;28;20307;-89
2022/10/15 01:41:41;;;;;;;;;;;;;;;;;;5077038;28;19999;-89
2022/10/15 01:44:06;;;;;;;;;;;;;;;;;;5083895;28;19972;-87
2022/10/15 01:46:50;;;;;;;;;;;;;;;;;;5080156;28;19920;-89
2022/10/15 01:49:20;;;;;;;;;;;;;;;;;;5080700;28;19959;-88
2022/10/15 01:51:45;;;;;;;;;;;;;;;;;;5079885;28;19959;-87
2022/10/15 01:54:11;;;;;;;;;;;;;;;;;;5073372;28;19912;-89
2022/10/15 01:56:37;;;;;;;;;;;;;;;;;;5072821;28;19917;-88
2022/10/15 01:59:02;;;;;;;;;;;;;;;;;;5073266;28;19964;-90
2022/10/15 02:01:27;;;;;;;;;;;;;;;;;;5071509;28;19913;-87
2022/10/15 02:03:53;;;;;;;;;;;;;;;;;;5068611;28;19913;-88
2022/10/15 02:06:18;;;;;;;;;;;;;;;;;;5085755;28;20275;-88
2022/10/15 02:08:44;;;;;;;;;;;;;;;;;;5072973;28;19919;-87
2022/10/15 02:11:09;;;;;;;;;;;;;;;;;;5072849;28;20425;-87
2022/10/15 02:13:35;;;;;;;;;;;;;;;;;;5071542;28;19956;-88
2022/10/15 02:16:00;;;;;;;;;;;;;;;;;;5072115;28;20387;-88
2022/10/15 02:18:29;;;;;;;;;;;;;;;;;;5071457;28;19920;-89
2022/10/15 02:20:57;;;;;;;;;;;;;;;;;;5055367;28;19912;-89
2022/10/15 02:23:23;;;;;;;;;;;;;;;;;;5070746;28;20003;-90
2022/10/15 02:25:48;;;;;;;;;;;;;;;;;;5071325;28;19917;-86
2022/10/15 02:28:14;;;;;;;;;;;;;;;;;;5072610;28;19913;-89
2022/10/15 02:30:39;;;;;;;;;;;;;;;;;;5088174;28;19917;-88
2022/10/15 02:33:04;;;;;;;;;;;;;;;;;;5054379;28;19914;-89
2022/10/15 02:35:30;;;;;;;;;;;;;;;;;;5072073;28;20314;-89
2022/10/15 02:37:55;;;;;;;;;;;;;;;;;;5067739;28;19920;-89
2022/10/15 02:40:20;;;;;;;;;;;;;;;;;;5072223;28;19920;-89
2022/10/15 02:42:46;;;;;;;;;;;;;;;;;;5072462;28;19913;-87
2022/10/15 02:45:11;;;;;;;;;;;;;;;;;;5078332;28;19923;-89
2022/10/15 02:47:38;;;;;;;;;;;;;;;;;;5081011;28;20359;-85
2022/10/15 02:50:03;;;;;;;;;;;;;;;;;;5094200;22;19958;-87
2022/10/15 02:52:29;;;;;;;;;;;;;;;;;;5063826;28;19962;-89
2022/10/15 02:54:54;;;;;;;;;;;;;;;;;;5061882;28;20007;-90
2022/10/15 02:57:20;;;;;;;;;;;;;;;;;;5043401;28;19913;-88
2022/10/15 02:59:45;;;;;;;;;;;;;;;;;;5042566;28;19919;-88
2022/10/15 03:02:11;;;;;;;;;;;;;;;;;;5057555;28;20455;-89
2022/10/15 03:04:36;;;;;;;;;;;;;;;;;;5074432;28;19923;-89
2022/10/15 03:07:02;;;;;;;;;;;;;;;;;;5057904;28;19912;-89
2022/10/15 03:09:28;;;;;;;;;;;;;;;;;;5074848;28;19916;-88
2022/10/15 03:11:53;;;;;;;;;;;;;;;;;;5057936;28;20294;-90
2022/10/15 03:14:19;;;;;;;;;;;;;;;;;;5063670;28;19912;-89
2022/10/15 03:16:44;;;;;;;;;;;;;;;;;;5074591;28;19919;-89
2022/10/15 03:19:10;;;;;;;;;;;;;;;;;;5057824;28;19912;-89
2022/10/15 03:21:35;;;;;;;;;;;;;;;;;;5074728;28;19922;-89
2022/10/15 03:24:07;;;;;;;;;;;;;;;;;;5057831;28;19916;-90
2022/10/15 03:26:32;;;;;;;;;;;;;;;;;;5057693;28;19957;-91
2022/10/15 03:28:57;;;;;;;;;;;;;;;;;;5057648;28;19995;-88
2022/10/15 03:31:34;;;;;;;;;;;;;;;;;;5057764;28;19919;-89
2022/10/15 03:34:01;;;;;;;;;;;;;;;;;;5057912;28;19916;-90
2022/10/15 03:36:26;;;;;;;;;;;;;;;;;;5041325;28;19920;-89
2022/10/15 03:38:52;;;;;;;;;;;;;;;;;;5057638;28;19916;-90
2022/10/15 03:41:17;;;;;;;;;;;;;;;;;;5057957;28;19968;-89
2022/10/15 03:43:43;;;;;;;;;;;;;;;;;;5074006;28;19913;-89
2022/10/15 03:46:10;;;;;;;;;;;;;;;;;;5072084;28;20388;-90
2022/10/15 03:48:39;;;;;;;;;;;;;;;;;;5074038;28;19920;-89
2022/10/15 03:51:05;;;;;;;;;;;;;;;;;;5057360;28;19916;-91
2022/10/15 03:53:30;;;;;;;;;;;;;;;;;;5057296;28;19912;-90
2022/10/15 03:55:56;;;;;;;;;;;;;;;;;;5057418;28;20407;-90
2022/10/15 03:58:21;;;;;;;;;;;;;;;;;;5074134;28;19999;-90
2022/10/15 04:00:54;;;;;;;;;;;;;;;;;;5057336;28;19917;-89
2022/10/15 04:03:19;;;;;;;;;;;;;;;;;;5056953;28;19912;-89
2022/10/15 04:05:45;;;;;;;;;;;;;;;;;;5089748;28;19916;-89
2022/10/15 04:08:10;;;;;;;;;;;;;;;;;;5082407;28;19912;-88
2022/10/15 04:10:39;;;;;;;;;;;;;;;;;;5029515;28;19958;-91
2022/10/15 04:13:05;;;;;;;;;;;;;;;;;;5041006;28;20287;-90
2022/10/15 04:15:31;;;;;;;;;;;;;;;;;;5057415;28;19913;-89
2022/10/15 04:18:02;;;;;;;;;;;;;;;;;;5056953;28;19912;-88
2022/10/15 04:20:27;;;;;;;;;;;;;;;;;;5057398;28;20339;-89
2022/10/15 04:22:57;;;;;;;;;;;;;;;;;;5073223;28;19916;-88
2022/10/15 04:25:23;;;;;;;;;;;;;;;;;;5056980;28;19920;-89
2022/10/15 04:27:48;;;;;;;;;;;;;;;;;;5040172;28;19943;-90
2022/10/15 04:30:16;;;;;;;;;;;;;;;;;;5056942;28;19950;-88
2022/10/15 04:32:48;;;;;;;;;;;;;;;;;;5056531;28;19986;-88
2022/10/15 04:35:13;;;;;;;;;;;;;;;;;;5056369;28;19913;-89
2022/10/15 04:37:58;;;;;;;;;;;;;;;;;;5057620;28;19923;-90
2022/10/15 04:40:24;;;;;;;;;;;;;;;;;;5058311;28;19912;-89
2022/10/15 04:42:49;;;;;;;;;;;;;;;;;;5093043;28;19916;-88
2022/10/15 04:45:15;;;;;;;;;;;;;;;;;;5079524;28;19912;-90
2022/10/15 04:47:40;;;;;;;;;;;;;;;;;;5060643;28;20004;-89
2022/10/15 04:50:13;;;;;;;;;;;;;;;;;;5063666;28;19919;-87
2022/10/15 04:52:57;;;;;;;;;;;;;;;;;;5106087;28;19923;-87
2022/10/15 04:55:23;;;;;;;;;;;;;;;;;;5108000;28;19912;-87
2022/10/15 04:57:52;;;;;;;;;;;;;;;;;;5100922;28;19923;-89
2022/10/15 05:00:22;;;;;;;;;;;;;;;;;;5064318;28;19912;-90
2022/10/15 05:03:17;;;;;;;;;;;;;;;;;;5097945;28;19912;-91
2022/10/15 05:05:48;;;;;;;;;;;;;;;;;;5064349;28;20015;-89
2022/10/15 05:08:13;;;;;;;;;;;;;;;;;;5078892;28;19952;-89
2022/10/15 05:10:56;;;;;;;;;;;;;;;;;;5060853;28;19958;-87
2022/10/15 05:13:22;;;;;;;;;;;;;;;;;;5070362;28;19955;-90
2022/10/15 05:15:47;;;;;;;;;;;;;;;;;;5058897;28;19939;-90
2022/10/15 05:18:13;;;;;;;;;;;;;;;;;;5090342;28;19920;-90
2022/10/15 05:20:49;;;;;;;;;;;;;;;;;;5060199;28;19924;-88
2022/10/15 05:23:17;;;;;;;;;;;;;;;;;;5045033;28;19912;-87
2022/10/15 05:25:50;;;;;;;;;;;;;;;;;;5060508;28;19924;-88
2022/10/15 05:28:19;;;;;;;;;;;;;;;;;;5056277;28;19919;-89
2022/10/15 05:30:45;;;;;;;;;;;;;;;;;;5056419;28;20299;-88
2022/10/15 05:33:10;;;;;;;;;;;;;;;;;;5073435;28;19965;-88
2022/10/15 05:35:36;;;;;;;;;;;;;;;;;;5056358;28;19966;-90
2022/10/15 05:38:03;;;;;;;;;;;;;;;;;;5073337;28;20376;-87
2022/10/15 05:40:28;;;;;;;;;;;;;;;;;;5072948;28;19916;-89
2022/10/15 05:43:03;;;;;;;;;;;;;;;;;;5040020;28;19912;-91
2022/10/15 05:45:29;;;;;;;;;;;;;;;;;;5059169;28;19938;-89
2022/10/15 05:48:00;;;;;;;;;;;;;;;;;;5058512;28;19915;-89
2022/10/15 05:50:25;;;;;;;;;;;;;;;;;;5075190;28;19967;-89
2022/10/15 05:52:54;;;;;;;;;;;;;;;;;;5092731;28;20002;-89
2022/10/15 05:55:25;;;;;;;;;;;;;;;;;;5092456;28;19966;-89
2022/10/15 05:57:51;;;;;;;;;;;;;;;;;;5096158;28;19916;-89
2022/10/15 06:00:16;;;;;;;;;;;;;;;;;;5086698;28;19921;-88
2022/10/15 06:02:50;;;;;;;;;;;;;;;;;;5079219;28;19912;-88
2022/10/15 06:05:16;;;;;;;;;;;;;;;;;;5056471;28;19924;-89
2022/10/15 06:07:41;;;;;;;;;;;;;;;;;;5073898;28;19912;-88
2022/10/15 06:10:07;;;;;;;;;;;;;;;;;;5073276;28;19935;-89
2022/10/15 06:12:33;;;;;;;;;;;;;;;;;;5072997;28;19920;-88
2022/10/15 06:14:58;;;;;;;;;;;;;;;;;;5072468;28;19916;-87
2022/10/15 06:17:23;;;;;;;;;;;;;;;;;;5073128;28;19920;-87
2022/10/15 06:19:49;;;;;;;;;;;;;;;;;;5093349;28;20374;-89
2022/10/15 06:22:14;;;;;;;;;;;;;;;;;;5061820;28;19912;-90
2022/10/15 06:24:40;;;;;;;;;;;;;;;;;;5077798;28;19924;-90
2022/10/15 06:27:06;;;;;;;;;;;;;;;;;;5081244;28;20386;-89
2022/10/15 06:29:31;;;;;;;;;;;;;;;;;;5084031;28;20333;-90
2022/10/15 06:32:00;;;;;;;;;;;;;;;;;;5062968;28;19912;-89
2022/10/15 06:34:26;;;;;;;;;;;;;;;;;;5078042;28;19912;-87
2022/10/15 06:36:51;;;;;;;;;;;;;;;;;;5061754;28;19970;-89
2022/10/15 06:39:17;;;;;;;;;;;;;;;;;;5077605;28;19912;-90
2022/10/15 06:41:43;;;;;;;;;;;;;;;;;;5058077;28;20011;-89
2022/10/15 06:44:08;;;;;;;;;;;;;;;;;;5091633;28;19963;-88
2022/10/15 06:46:34;;;;;;;;;;;;;;;;;;5081951;28;19912;-86
2022/10/15 06:48:59;;;;;;;;;;;;;;;;;;5063545;28;20352;-86
2022/10/15 06:51:24;;;;;;;;;;;;;;;;;;5062798;28;19916;-88
2022/10/15 06:53:50;;;;;;;;;;;;;;;;;;5050700;28;20363;-87
2022/10/15 06:56:15;;;;;;;;;;;;;;;;;;5074868;28;20083;-82
2022/10/15 06:58:43;;;;;;;;;;;;;;;;;;5070116;28;19913;-86
2022/10/15 07:01:09;;;;;;;;;;;;;;;;;;5094523;28;19923;-88
2022/10/15 07:03:35;;;;;;;;;;;;;;;;;;5093364;28;19912;-87
2022/10/15 07:06:02;;;;;;;;;;;;;;;;;;5100671;28;19916;-87
2022/10/15 07:08:27;;;;;;;;;;;;;;;;;;5061116;28;20291;-86
2022/10/15 07:10:53;;;;;;;;;;;;;;;;;;5078996;28;19920;-88
2022/10/15 07:13:19;;;;;;;;;;;;;;;;;;5061008;28;19998;-89
2022/10/15 07:15:48;;;;;;;;;;;;;;;;;;5084581;28;19950;-87
2022/10/15 07:18:13;;;;;;;;;;;;;;;;;;5075174;28;19912;-86
2022/10/15 07:20:39;;;;;;;;;;;;;;;;;;5090951;28;19912;-88
2022/10/15 07:23:04;;;;;;;;;;;;;;;;;;5089372;28;19997;-87
2022/10/15 07:25:32;;;;;;;;;;;;;;;;;;5088797;28;19916;-87
2022/10/15 07:27:57;;;;;;;;;;;;;;;;;;5069581;28;20382;-87
2022/10/15 07:30:26;;;;;;;;;;;;;;;;;;5063938;28;19919;-88
2022/10/15 07:32:51;;;;;;;;;;;;;;;;;;5069138;28;19995;-87
2022/10/15 07:35:17;;;;;;;;;;;;;;;;;;5093789;28;19913;-84
2022/10/15 07:37:42;;;;;;;;;;;;;;;;;;5091139;28;19920;-87
2022/10/15 07:40:07;;;;;;;;;;;;;;;;;;5075569;28;19952;-85
2022/10/15 07:42:33;;;;;;;;;;;;;;;;;;5062061;28;19896;-89
2022/10/15 07:44:58;;;;;;;;;;;;;;;;;;5068143;28;19924;-89
2022/10/15 07:47:24;;;;;;;;;;;;;;;;;;5071837;28;20291;-86
2022/10/15 07:49:49;;;;;;;;;;;;;;;;;;5079320;28;20382;-85
2022/10/15 07:52:15;;;;;;;;;;;;;;;;;;5099892;28;19916;-86
2022/10/15 07:54:40;;;;;;;;;;;;;;;;;;5096843;28;19919;-89
2022/10/15 07:57:05;;;;;;;;;;;;;;;;;;5095287;28;19912;-87
2022/10/15 07:59:31;;;;;;;;;;;;;;;;;;5062676;28;19919;-86
2022/10/15 08:01:56;;;;;;;;;;;;;;;;;;5090576;28;19920;-87
2022/10/15 08:04:22;;;;;;;;;;;;;;;;;;5094560;28;20441;-88
2022/10/15 08:06:48;;;;;;;;;;;;;;;;;;5094772;28;19912;-89
2022/10/15 08:09:14;;;;;;;;;;;;;;;;;;5060614;28;19914;-87
2022/10/15 08:11:39;;;;;;;;;;;;;;;;;;5094089;28;19919;-86
2022/10/15 08:14:08;;;;;;;;;;;;;;;;;;5094268;28;19916;-88
2022/10/15 08:16:33;;;;;;;;;;;;;;;;;;5076278;28;19919;-89
2022/10/15 08:18:59;;;;;;;;;;;;;;;;;;5090885;28;19940;-89
2022/10/15 08:21:25;;;;;;;;;;;;;;;;;;5055845;28;20336;-89
2022/10/15 08:23:51;;;;;;;;;;;;;;;;;;5074296;28;19952;-90
2022/10/15 08:26:16;;;;;;;;;;;;;;;;;;5040841;28;19916;-89
2022/10/15 08:28:41;;;;;;;;;;;;;;;;;;5041721;28;19913;-89
2022/10/15 08:31:07;;;;;;;;;;;;;;;;;;5040366;28;19924;-90
2022/10/15 08:33:32;;;;;;;;;;;;;;;;;;5045544;28;19934;-88
2022/10/15 08:36:00;;;;;;;;;;;;;;;;;;5049098;28;19916;-90
2022/10/15 08:38:26;;;;;;;;;;;;;;;;;;5061337;28;19978;-90
2022/10/15 08:40:51;;;;;;;;;;;;;;;;;;5077203;28;20337;-90
2022/10/15 08:43:16;;;;;;;;;;;;;;;;;;5077147;28;20287;-89
2022/10/15 08:45:43;;;;;;;;;;;;;;;;;;5076850;28;20053;-90
2022/10/15 08:48:09;;;;;;;;;;;;;;;;;;5060314;28;19916;-90
2022/10/15 08:50:34;;;;;;;;;;;;;;;;;;5092432;22;19911;-84
2022/10/15 08:53:00;;;;;;;;;;;;;;;;;;5088884;28;19916;-84
2022/10/15 08:55:25;;;;;;;;;;;;;;;;;;5114593;28;20398;-84
2022/10/15 08:57:51;;;;;;;;;;;;;;;;;;5103943;28;19916;-85
2022/10/15 09:00:17;;;;;;;;;;;;;;;;;;5104868;28;19919;-84
2022/10/15 09:02:42;;;;;;;;;;;;;;;;;;5105775;28;19975;-85
2022/10/15 09:05:16;;;;;;;;;;;;;;;;;;5105322;28;19916;-85
2022/10/15 09:07:42;;;;;;;;;;;;;;;;;;5052271;28;19916;-85
2022/10/15 09:10:08;;;;;;;;;;;;;;;;;;5088808;28;19919;-84
2022/10/15 09:12:34;;;;;;;;;;;;;;;;;;5073775;28;19912;-85
2022/10/15 09:15:03;;;;;;;;;;;;;;;;;;5087602;28;19912;-85
2022/10/15 09:17:30;;;;;;;;;;;;;;;;;;5063690;28;19918;-84
2022/10/15 09:19:55;;;;;;;;;;;;;;;;;;5044087;28;19951;-84
2022/10/15 09:22:21;;;;;;;;;;;;;;;;;;5078397;28;19916;-82
2022/10/15 09:24:51;;;;;;;;;;;;;;;;;;5074272;28;20152;-84
2022/10/15 09:27:17;;;;;;;;;;;;;;;;;;5096032;28;19906;-84
2022/10/15 09:29:50;;;;;;;;;;;;;;;;;;5097147;28;19912;-85
2022/10/15 09:32:31;;;;;;;;;;;;;;;;;;5080084;28;19938;-84
2022/10/15 09:35:05;;;;;;;;;;;;;;;;;;5079002;28;19912;-85
2022/10/15 09:37:34;;;;;;;;;;;;;;;;;;5078959;28;19912;-84
2022/10/15 09:40:00;;;;;;;;;;;;;;;;;;5073132;28;19912;-84
2022/10/15 09:42:27;;;;;;;;;;;;;;;;;;5072992;28;19961;-84
2022/10/15 09:44:52;;;;;;;;;;;;;;;;;;5081473;28;19912;-84
2022/10/15 09:47:18;;;;;;;;;;;;;;;;;;5062961;28;19912;-84
2022/10/15 09:49:43;;;;;;;;;;;;;;;;;;5078623;28;19912;-84
2022/10/15 09:52:09;;;;;;;;;;;;;;;;;;5080972;28;19916;-84
2022/10/15 09:54:35;;;;;;;;;;;;;;;;;;5095518;28;19912;-83
2022/10/15 09:57:03;;;;;;;;;;;;;;;;;;5062788;28;20294;-83
2022/10/15 09:59:30;;;;;;;;;;;;;;;;;;5057615;28;19908;-84
2022/10/15 10:01:58;;;;;;;;;;;;;;;;;;5074004;28;20371;-84
2022/10/15 10:04:24;;;;;;;;;;;;;;;;;;5072938;28;19913;-83
2022/10/15 10:06:52;;;;;;;;;;;;;;;;;;5074396;28;19916;-83
2022/10/15 10:09:18;;;;;;;;;;;;;;;;;;5057803;28;19935;-83
2022/10/15 10:11:43;;;;;;;;;;;;;;;;;;5041253;28;19962;-82
2022/10/15 10:14:09;;;;;;;;;;;;;;;;;;5057114;28;20351;-82
2022/10/15 10:16:35;;;;;;;;;;;;;;;;;;5057430;28;19962;-84
2022/10/15 10:19:01;;;;;;;;;;;;;;;;;;5074113;28;19912;-83
2022/10/15 10:21:26;;;;;;;;;;;;;;;;;;5073741;28;19919;-83
2022/10/15 10:23:52;;;;;;;;;;;;;;;;;;5060487;28;20294;-84
2022/10/15 10:26:17;;;;;;;;;;;;;;;;;;5094077;28;20378;-83
2022/10/15 10:28:43;;;;;;;;;;;;;;;;;;5078080;28;20182;-84
2022/10/15 10:31:08;;;;;;;;;;;;;;;;;;5096290;28;19919;-83
2022/10/15 10:33:34;;;;;;;;;;;;;;;;;;5096692;28;19959;-83
2022/10/15 10:36:00;;;;;;;;;;;;;;;;;;5063564;28;19907;-84
2022/10/15 10:38:26;;;;;;;;;;;;;;;;;;5075870;28;19947;-85
2022/10/15 10:40:51;;;;;;;;;;;;;;;;;;5061562;28;19950;-85
2022/10/15 10:43:17;;;;;;;;;;;;;;;;;;5060517;28;19938;-84
2022/10/15 10:45:43;;;;;;;;;;;;;;;;;;5044518;28;20298;-85
2022/10/15 10:48:08;;;;;;;;;;;;;;;;;;5062148;28;20525;-83
2022/10/15 10:50:36;;;;;;;;;;;;;;;;;;5079869;28;20256;-85
2022/10/15 10:53:01;;;;;;;;;;;;;;;;;;5061476;28;19975;-84
2022/10/15 10:55:28;;;;;;;;;;;;;;;;;;5049430;28;19912;-84
2022/10/15 10:57:54;;;;;;;;;;;;;;;;;;5063405;28;19912;-84
2022/10/15 11:00:19;;;;;;;;;;;;;;;;;;5061678;28;20015;-84
2022/10/15 11:02:47;;;;;;;;;;;;;;;;;;5061840;28;19995;-84
2022/10/15 11:05:12;;;;;;;;;;;;;;;;;;5070085;28;19951;-85
2022/10/15 11:07:38;;;;;;;;;;;;;;;;;;5062167;28;19919;-83
2022/10/15 11:10:04;;;;;;;;;;;;;;;;;;5059506;28;20317;-83
2022/10/15 11:12:29;;;;;;;;;;;;;;;;;;5068141;28;19948;-84
2022/10/15 11:14:55;;;;;;;;;;;;;;;;;;5097507;28;19912;-81
2022/10/15 11:17:20;;;;;;;;;;;;;;;;;;5078217;28;20358;-82
2022/10/15 11:19:45;;;;;;;;;;;;;;;;;;5062682;28;19919;-82
2022/10/15 11:22:11;;;;;;;;;;;;;;;;;;5079745;28;20322;-82
2022/10/15 11:24:37;;;;;;;;;;;;;;;;;;5062852;28;19939;-83
2022/10/15 11:27:02;;;;;;;;;;;;;;;;;;5078011;28;20256;-84
2022/10/15 11:29:40;;;;;;;;;;;;;;;;;;5080127;28;20378;-84
2022/10/15 11:32:05;;;;;;;;;;;;;;;;;;5108816;28;19919;-84
2022/10/15 11:34:34;;;;;;;;;;;;;;;;;;5097860;28;19983;-85
2022/10/15 11:36:59;;;;;;;;;;;;;;;;;;5112827;28;19900;-85
2022/10/15 11:39:25;;;;;;;;;;;;;;;;;;5094862;28;19911;-84
2022/10/15 11:41:51;;;;;;;;;;;;;;;;;;5096921;28;19947;-84
2022/10/15 11:44:18;;;;;;;;;;;;;;;;;;5078091;28;19912;-86
2022/10/15 11:46:43;;;;;;;;;;;;;;;;;;5094734;28;19956;-82
2022/10/15 11:49:08;;;;;;;;;;;;;;;;;;5087339;28;20291;-83
2022/10/15 11:51:34;;;;;;;;;;;;;;;;;;5100693;28;19916;-80
2022/10/15 11:54:00;;;;;;;;;;;;;;;;;;5095832;28;19911;-75
2022/10/15 11:56:25;;;;;;;;;;;;;;;;;;5079620;28;19927;-76
2022/10/15 11:58:51;;;;;;;;;;;;;;;;;;5079947;28;20426;-76
2022/10/15 12:01:17;;;;;;;;;;;;;;;;;;5075321;28;20018;-75
2022/10/15 12:03:42;;;;;;;;;;;;;;;;;;5078832;28;19912;-75
2022/10/15 12:06:08;;;;;;;;;;;;;;;;;;5079077;28;20014;-75
2022/10/15 12:08:33;;;;;;;;;;;;;;;;;;5079059;28;19923;-75
2022/10/15 12:10:59;;;;;;;;;;;;;;;;;;5079031;28;19912;-75
2022/10/15 12:13:24;;;;;;;;;;;;;;;;;;5095372;28;19919;-77
2022/10/15 12:15:50;;;;;;;;;;;;;;;;;;5095839;28;19911;-78
2022/10/15 12:18:16;;;;;;;;;;;;;;;;;;5073893;28;20389;-77
2022/10/15 12:20:42;;;;;;;;;;;;;;;;;;5085040;28;19912;-83
2022/10/15 12:23:08;;;;;;;;;;;;;;;;;;5081392;28;19964;-83
2022/10/15 12:25:33;;;;;;;;;;;;;;;;;;5096956;28;19912;-82
2022/10/15 12:27:59;;;;;;;;;;;;;;;;;;5096240;28;19984;-81
2022/10/15 12:30:24;;;;;;;;;;;;;;;;;;5113575;28;19976;-81
2022/10/15 12:32:50;;;;;;;;;;;;;;;;;;5062063;28;19919;-81
2022/10/15 12:35:16;;;;;;;;;;;;;;;;;;5074367;28;20256;-79
2022/10/15 12:37:42;;;;;;;;;;;;;;;;;;5058516;28;19912;-80
2022/10/15 12:40:08;;;;;;;;;;;;;;;;;;5042320;28;20324;-81
2022/10/15 12:42:33;;;;;;;;;;;;;;;;;;5041419;28;19920;-80
2022/10/15 12:44:59;;;;;;;;;;;;;;;;;;5041845;28;19916;-81
2022/10/15 12:47:24;;;;;;;;;;;;;;;;;;5058226;28;19912;-80
2022/10/15 12:49:50;;;;;;;;;;;;;;;;;;5091936;28;19912;-81
2022/10/15 12:52:15;;;;;;;;;;;;;;;;;;5057446;28;19915;-82
2022/10/15 12:54:40;;;;;;;;;;;;;;;;;;5095350;28;19912;-81
2022/10/15 12:57:06;;;;;;;;;;;;;;;;;;5078436;28;19934;-81
2022/10/15 12:59:31;;;;;;;;;;;;;;;;;;5095104;28;19915;-81
2022/10/15 13:02:00;;;;;;;;;;;;;;;;;;5095301;28;20014;-81
2022/10/15 13:04:25;;;;;;;;;;;;;;;;;;5077585;28;19947;-81
2022/10/15 13:06:52;;;;;;;;;;;;;;;;;;5071377;28;20179;-80
2022/10/15 13:09:17;;;;;;;;;;;;;;;;;;5041547;28;20436;-81
2022/10/15 13:11:43;;;;;;;;;;;;;;;;;;5041732;28;19912;-80
2022/10/15 13:14:08;;;;;;;;;;;;;;;;;;5092286;28;19935;-80
2022/10/15 13:16:34;;;;;;;;;;;;;;;;;;5074828;28;20382;-81
2022/10/15 13:18:59;;;;;;;;;;;;;;;;;;5074499;28;20286;-80
2022/10/15 13:21:27;;;;;;;;;;;;;;;;;;5074636;28;19919;-82
2022/10/15 13:23:53;;;;;;;;;;;;;;;;;;5100418;28;19912;-81
2022/10/15 13:26:18;;;;;;;;;;;;;;;;;;5094313;28;19951;-81
2022/10/15 13:28:44;;;;;;;;;;;;;;;;;;5077949;28;19916;-81
2022/10/15 13:31:09;;;;;;;;;;;;;;;;;;5095014;28;20270;-81
2022/10/15 13:33:35;;;;;;;;;;;;;;;;;;5077593;28;19915;-81
2022/10/15 13:36:00;;;;;;;;;;;;;;;;;;5112687;28;20370;-81
2022/10/15 13:38:26;;;;;;;;;;;;;;;;;;5061630;28;20328;-80
2022/10/15 13:40:52;;;;;;;;;;;;;;;;;;5057333;28;19966;-81
2022/10/15 13:43:21;;;;;;;;;;;;;;;;;;5074188;28;19934;-81
2022/10/15 13:45:47;;;;;;;;;;;;;;;;;;5074553;28;19923;-81
2022/10/15 13:48:13;;;;;;;;;;;;;;;;;;5075094;28;20397;-81
2022/10/15 13:50:38;;;;;;;;;;;;;;;;;;5041142;28;20011;-80
2022/10/15 13:53:03;;;;;;;;;;;;;;;;;;5040440;28;19961;-80
2022/10/15 13:55:29;;;;;;;;;;;;;;;;;;5073878;28;19916;-81
2022/10/15 13:57:55;;;;;;;;;;;;;;;;;;5075470;28;19916;-80
2022/10/15 14:00:21;;;;;;;;;;;;;;;;;;5077326;28;19919;-80
2022/10/15 14:02:47;;;;;;;;;;;;;;;;;;5093820;28;20302;-80
2022/10/15 14:05:12;;;;;;;;;;;;;;;;;;5077724;28;19916;-80
2022/10/15 14:07:38;;;;;;;;;;;;;;;;;;5094623;28;20287;-80
2022/10/15 14:10:03;;;;;;;;;;;;;;;;;;5094002;28;20366;-80
2022/10/15 14:12:28;;;;;;;;;;;;;;;;;;5060120;28;19912;-80
2022/10/15 14:14:54;;;;;;;;;;;;;;;;;;5083223;28;19908;-81
2022/10/15 14:17:19;;;;;;;;;;;;;;;;;;5057241;28;19924;-80
2022/10/15 14:19:44;;;;;;;;;;;;;;;;;;5040637;28;20426;-80
2022/10/15 14:22:10;;;;;;;;;;;;;;;;;;5073653;28;19919;-81
2022/10/15 14:24:35;;;;;;;;;;;;;;;;;;5073497;28;20333;-80
2022/10/15 14:27:01;;;;;;;;;;;;;;;;;;5073568;28;19912;-80
2022/10/15 14:29:26;;;;;;;;;;;;;;;;;;5056966;28;19912;-80
2022/10/15 14:31:52;;;;;;;;;;;;;;;;;;5057010;28;20279;-81
2022/10/15 14:34:17;;;;;;;;;;;;;;;;;;5073237;28;19912;-80
2022/10/15 14:36:43;;;;;;;;;;;;;;;;;;5073305;28;20236;-80
2022/10/15 14:39:09;;;;;;;;;;;;;;;;;;5056975;28;19912;-81
2022/10/15 14:41:34;;;;;;;;;;;;;;;;;;5056631;28;19912;-80
2022/10/15 14:44:00;;;;;;;;;;;;;;;;;;5089799;28;20029;-79
2022/10/15 14:46:26;;;;;;;;;;;;;;;;;;5074709;28;19916;-80
2022/10/15 14:48:51;;;;;;;;;;;;;;;;;;5095477;28;19916;-80
2022/10/15 14:51:17;;;;;;;;;;;;;;;;;;5076165;22;19924;-91
2022/10/15 14:53:42;;;;;;;;;;;;;;;;;;5089134;28;19916;-90
2022/10/15 14:56:08;;;;;;;;;;;;;;;;;;5088094;28;19912;-90
2022/10/15 14:58:33;;;;;;;;;;;;;;;;;;5073703;28;20332;-90
2022/10/15 15:00:59;;;;;;;;;;;;;;;;;;5075034;28;19918;-91
2022/10/15 15:03:30;;;;;;;;;;;;;;;;;;5055689;28;19975;-91
2022/10/15 15:05:56;;;;;;;;;;;;;;;;;;5049020;28;19920;-91
2022/10/15 15:08:22;;;;;;;;;;;;;;;;;;5071175;28;19935;-92
2022/10/15 15:10:47;;;;;;;;;;;;;;;;;;5065549;28;19974;-90
2022/10/15 15:13:13;;;;;;;;;;;;;;;;;;5101807;28;19916;-90
2022/10/15 15:15:38;;;;;;;;;;;;;;;;;;5072168;28;19919;-92
2022/10/15 15:18:03;;;;;;;;;;;;;;;;;;5060821;28;20377;-91
2022/10/15 15:20:29;;;;;;;;;;;;;;;;;;5078782;28;19915;-90
2022/10/15 15:22:54;;;;;;;;;;;;;;;;;;5077374;28;19919;-91
2022/10/15 15:25:20;;;;;;;;;;;;;;;;;;5088575;28;19916;-91
2022/10/15 15:27:45;;;;;;;;;;;;;;;;;;5093360;28;19915;-92
2022/10/15 15:30:11;;;;;;;;;;;;;;;;;;5092914;28;19908;-92
2022/10/15 15:32:36;;;;;;;;;;;;;;;;;;5074209;28;19916;-92
2022/10/15 15:35:02;;;;;;;;;;;;;;;;;;5073744;28;19913;-91
2022/10/15 15:37:29;;;;;;;;;;;;;;;;;;5057995;28;20294;-90
2022/10/15 15:39:56;;;;;;;;;;;;;;;;;;5058985;28;19912;-92
2022/10/15 15:42:27;;;;;;;;;;;;;;;;;;5059409;28;19944;-92
2022/10/15 15:44:54;;;;;;;;;;;;;;;;;;5072717;28;19920;-92
2022/10/15 15:47:22;;;;;;;;;;;;;;;;;;5070734;28;19912;-92
2022/10/15 15:49:50;;;;;;;;;;;;;;;;;;5070608;28;19919;-91
2022/10/15 15:52:17;;;;;;;;;;;;;;;;;;5069812;28;19916;-92
2022/10/15 15:54:50;;;;;;;;;;;;;;;;;;5069415;28;19912;-91
2022/10/15 15:57:16;;;;;;;;;;;;;;;;;;5068657;28;19919;-93
2022/10/15 15:59:41;;;;;;;;;;;;;;;;;;5077740;28;19955;-93
2022/10/15 16:02:07;;;;;;;;;;;;;;;;;;5050883;28;20333;-92
2022/10/15 16:04:33;;;;;;;;;;;;;;;;;;5082280;28;19912;-91
2022/10/15 16:06:58;;;;;;;;;;;;;;;;;;5088365;28;19912;-92
2022/10/15 16:09:24;;;;;;;;;;;;;;;;;;5050508;28;20428;-92
2022/10/15 16:11:49;;;;;;;;;;;;;;;;;;5067398;28;19912;-91
2022/10/15 16:14:15;;;;;;;;;;;;;;;;;;5049010;28;19919;-91
2022/10/15 16:16:41;;;;;;;;;;;;;;;;;;5056033;28;20368;-91
2022/10/15 16:19:06;;;;;;;;;;;;;;;;;;5081517;28;19956;-92
2022/10/15 16:21:31;;;;;;;;;;;;;;;;;;5080626;28;19912;-92
2022/10/15 16:23:57;;;;;;;;;;;;;;;;;;5064234;28;19912;-91
2022/10/15 16:26:22;;;;;;;;;;;;;;;;;;5080235;28;19916;-91
2022/10/15 16:28:48;;;;;;;;;;;;;;;;;;5062905;28;19912;-92
2022/10/15 16:31:14;;;;;;;;;;;;;;;;;;5079763;28;20275;-90
2022/10/15 16:33:40;;;;;;;;;;;;;;;;;;5096860;28;19934;-90
2022/10/15 16:36:05;;;;;;;;;;;;;;;;;;5062776;28;19919;-91
2022/10/15 16:38:31;;;;;;;;;;;;;;;;;;5062675;28;19912;-89
2022/10/15 16:40:56;;;;;;;;;;;;;;;;;;5064248;28;20318;-90